createdAt,value
2019-06-01T00:02:56.376Z,96000.20
2019-06-01T00:07:53.944Z,95998.42
2019-06-01T00:12:55.400Z,95994.90
2019-06-01T00:17:56.933Z,95990.78
2019-06-01T00:22:58.993Z,95978.27
2019-06-01T00:28:00.583Z,95978.38
2019-06-01T00:33:02.428Z,95978.36
2019-06-01T00:38:03.755Z,95977.01
2019-06-01T00:43:05.079Z,95974.14
2019-06-01T00:48:06.426Z,95968.14
2019-06-01T00:53:07.754Z,95969.50
2019-06-01T00:58:09.096Z,95964.39
2019-06-01T01:03:11.136Z,95967.06
2019-06-01T01:08:12.494Z,95960.15
2019-06-01T01:13:17.699Z,95968.13
2019-06-01T01:18:19.187Z,95968.97
2019-06-01T01:23:20.536Z,95966.48
2019-06-01T01:28:23.922Z,95973.48
2019-06-01T01:33:23.312Z,95970.65
2019-06-01T01:38:26.136Z,95964.28
2019-06-01T01:43:27.455Z,95965.16
2019-06-01T01:48:29.269Z,95971.05
2019-06-01T01:53:30.605Z,95970.54
2019-06-01T01:58:31.961Z,95968.09
2019-06-01T02:03:33.287Z,95955.59
2019-06-01T02:08:34.621Z,95959.88
2019-06-01T02:13:35.920Z,95960.48
2019-06-01T02:18:37.287Z,95960.52
2019-06-01T02:23:38.681Z,95957.58
2019-06-01T02:28:40.015Z,95951.72
2019-06-01T02:33:41.371Z,95951.36
2019-06-01T02:38:42.747Z,95952.09
2019-06-01T02:43:44.103Z,95947.44
2019-06-01T02:48:45.405Z,95939.13
2019-06-01T02:53:46.877Z,95948.67
2019-06-01T02:58:48.204Z,95954.59
2019-06-01T03:03:49.579Z,95948.73
2019-06-01T03:08:50.888Z,95950.05
2019-06-01T03:13:52.215Z,95951.39
2019-06-01T03:18:53.525Z,95952.05
2019-06-01T03:23:54.839Z,95953.34
2019-06-01T03:28:56.209Z,95948.77
2019-06-01T03:33:57.577Z,95950.22
2019-06-01T03:38:59.957Z,95955.95
2019-06-01T03:44:02.416Z,95956.06
2019-06-01T03:49:03.634Z,95955.64
2019-06-01T03:54:05.030Z,95948.61
2019-06-01T03:59:05.354Z,95954.21
2019-06-01T04:04:07.130Z,95952.86
2019-06-01T04:09:08.085Z,95952.41
2019-06-01T04:14:09.878Z,95949.77
2019-06-01T04:19:12.196Z,95950.84
2019-06-01T04:24:12.657Z,95948.87
2019-06-01T04:29:14.024Z,95948.26
2019-06-01T04:34:15.441Z,95951.48
2019-06-01T04:39:17.491Z,95955.07
2019-06-01T04:44:18.816Z,95958.45
2019-06-01T04:49:20.132Z,95949.25
2019-06-01T04:54:21.437Z,95953.52
2019-06-01T04:59:22.848Z,95960.23
2019-06-01T05:04:24.177Z,95952.66
2019-06-01T05:09:25.508Z,95953.02
2019-06-01T05:14:26.940Z,95956.63
2019-06-01T05:19:28.269Z,95954.13
2019-06-01T05:24:29.616Z,95957.45
2019-06-01T05:29:30.975Z,95961.04
2019-06-01T05:34:32.301Z,95964.44
2019-06-01T05:39:33.631Z,95957.28
2019-06-01T05:44:34.954Z,95951.77
2019-06-01T05:49:37.015Z,95948.41
2019-06-01T05:54:38.345Z,95945.95
2019-06-01T05:59:39.697Z,95951.02
2019-06-01T06:04:41.053Z,95952.61
2019-06-01T06:09:42.458Z,95951.17
2019-06-01T06:14:43.840Z,95961.08
2019-06-01T06:19:45.184Z,95954.25
2019-06-01T06:24:46.501Z,95953.57
2019-06-01T06:29:47.810Z,95944.22
2019-06-01T06:34:49.237Z,95943.14
2019-06-01T06:39:50.594Z,95950.69
2019-06-01T06:44:51.897Z,95944.77
2019-06-01T06:49:53.224Z,95951.26
2019-06-01T06:54:54.574Z,95946.59
2019-06-01T06:59:55.871Z,95940.62
2019-06-01T07:04:57.231Z,95948.89
2019-06-01T07:09:58.549Z,95948.19
2019-06-01T07:14:59.874Z,95947.11
2019-06-01T07:20:01.381Z,95946.73
2019-06-01T07:25:04.241Z,95951.17
2019-06-01T07:30:05.585Z,95950.16
2019-06-01T07:35:06.945Z,95956.77
2019-06-01T07:40:13.150Z,95953.36
2019-06-01T07:45:09.773Z,95949.42
2019-06-01T07:50:11.228Z,95939.02
2019-06-01T07:55:12.556Z,95942.98
2019-06-01T08:00:13.919Z,95940.20
2019-06-01T08:05:15.269Z,95935.12
2019-06-01T08:10:16.734Z,95924.27
2019-06-01T08:15:18.084Z,95929.54
2019-06-01T08:20:19.418Z,95924.98
2019-06-01T08:25:22.179Z,95923.97
2019-06-01T08:30:23.001Z,95917.73
2019-06-01T08:35:24.892Z,95919.90
2019-06-01T08:40:25.773Z,95918.33
2019-06-01T08:45:27.679Z,95914.38
2019-06-01T08:50:29.795Z,95906.19
2019-06-01T08:55:30.201Z,95902.38
2019-06-01T09:00:32.530Z,95907.87
2019-06-01T09:05:33.148Z,95894.95
2019-06-01T09:10:35.420Z,95898.72
2019-06-01T09:15:35.681Z,95898.86
2019-06-01T09:20:38.835Z,95899.84
2019-06-01T09:25:38.218Z,95897.09
2019-06-01T09:30:39.631Z,95888.56
2019-06-01T09:35:53.933Z,95894.27
2019-06-01T09:40:42.437Z,95897.34
2019-06-01T09:45:43.765Z,95892.22
2019-06-01T09:50:45.170Z,95893.20
2019-06-01T09:55:46.471Z,95886.82
2019-06-01T10:00:48.674Z,95889.50
2019-06-01T10:06:01.333Z,95886.81
2019-06-01T10:10:52.279Z,95886.16
2019-06-01T10:15:53.751Z,95882.31
2019-06-01T10:20:55.193Z,95880.30
2019-06-01T10:25:56.528Z,95880.58
2019-06-01T10:30:57.904Z,95874.88
2019-06-01T10:35:59.232Z,95877.06
2019-06-01T10:41:00.589Z,95875.97
2019-06-01T10:46:01.984Z,95871.84
2019-06-01T10:51:03.393Z,95870.66
2019-06-01T10:56:04.814Z,95861.66
2019-06-01T11:01:06.277Z,95863.55
2019-06-01T11:06:07.654Z,95859.21
2019-06-01T11:11:09.019Z,95865.17
2019-06-01T11:16:10.341Z,95859.02
2019-06-01T11:21:11.722Z,95856.52
2019-06-01T11:26:13.800Z,95855.99
2019-06-01T11:31:15.167Z,95860.17
2019-06-01T11:36:16.550Z,95846.92
2019-06-01T11:41:18.824Z,95836.61
2019-06-01T11:46:19.389Z,95842.36
2019-06-01T11:51:20.725Z,95822.14
2019-06-01T11:56:22.034Z,95822.06
2019-06-01T12:01:23.398Z,95815.24
2019-06-01T12:06:24.801Z,95814.05
2019-06-01T12:11:26.121Z,95813.09
2019-06-01T12:16:27.436Z,95811.11
2019-06-01T12:21:28.801Z,95805.08
2019-06-01T12:26:30.111Z,95797.67
2019-06-01T12:31:31.423Z,95791.25
2019-06-01T12:36:32.754Z,95793.30
2019-06-01T12:41:34.078Z,95792.75
2019-06-01T12:46:36.992Z,95783.30
2019-06-01T12:51:40.411Z,95784.78
2019-06-01T12:56:40.817Z,95774.86
2019-06-01T13:01:42.978Z,95770.58
2019-06-01T13:06:45.037Z,95767.02
2019-06-01T13:11:45.319Z,95763.37
2019-06-01T13:16:56.980Z,95763.66
2019-06-01T13:21:49.986Z,95760.05
2019-06-01T13:26:50.109Z,95750.27
2019-06-01T13:31:50.883Z,95745.92
2019-06-01T13:36:53.044Z,95749.05
2019-06-01T13:41:53.645Z,95736.88
2019-06-01T13:46:55.018Z,95732.68
2019-06-01T13:51:56.357Z,95723.57
2019-06-01T13:56:57.681Z,95719.24
2019-06-01T14:01:59.046Z,95709.73
2019-06-01T14:07:00.434Z,95708.92
2019-06-01T14:12:01.773Z,95701.92
2019-06-01T14:17:03.141Z,95702.30
2019-06-01T14:22:04.471Z,95699.94
2019-06-01T14:27:05.760Z,95695.55
2019-06-01T14:32:07.077Z,95694.06
2019-06-01T14:37:09.145Z,95696.20
2019-06-01T14:42:10.487Z,95695.95
2019-06-01T14:47:11.909Z,95694.31
2019-06-01T14:52:13.340Z,95681.41
2019-06-01T14:57:14.732Z,95680.06
2019-06-01T15:02:16.063Z,95677.60
2019-06-01T15:07:17.452Z,95684.77
2019-06-01T15:12:18.837Z,95675.19
2019-06-01T15:17:20.169Z,95667.34
2019-06-01T15:22:21.466Z,95667.25
2019-06-01T15:27:22.812Z,95661.09
2019-06-01T15:32:26.771Z,95663.67
2019-06-01T15:37:26.233Z,95659.59
2019-06-01T15:42:27.568Z,95659.47
2019-06-01T15:47:28.940Z,95655.52
2019-06-01T15:52:30.321Z,95647.44
2019-06-01T15:57:31.629Z,95642.30
2019-06-01T16:02:32.953Z,95633.03
2019-06-01T16:07:34.261Z,95628.97
2019-06-01T16:12:36.490Z,95630.04
2019-06-01T16:17:38.728Z,95626.63
2019-06-01T16:22:40.108Z,95625.60
2019-06-01T16:27:41.554Z,95627.52
2019-06-01T16:32:43.602Z,95625.15
2019-06-01T16:37:45.018Z,95613.26
2019-06-01T16:42:46.425Z,95616.55
2019-06-01T16:47:47.773Z,95610.66
2019-06-01T16:52:49.163Z,95611.31
2019-06-01T16:57:50.591Z,95614.72
2019-06-01T17:02:51.924Z,95608.03
2019-06-01T17:07:54.050Z,95608.80
2019-06-01T17:12:56.736Z,95610.06
2019-06-01T17:17:57.281Z,95607.80
2019-06-01T17:22:59.452Z,95604.67
2019-06-01T17:28:00.276Z,95605.63
2019-06-01T17:33:02.326Z,95606.31
2019-06-01T17:38:03.006Z,95607.61
2019-06-01T17:43:04.682Z,95611.52
2019-06-01T17:48:20.487Z,95600.29
2019-06-01T17:53:07.079Z,95600.77
2019-06-01T17:58:09.792Z,95601.53
2019-06-01T18:03:10.162Z,95597.78
2019-06-01T18:08:12.385Z,95596.14
2019-06-01T18:13:13.050Z,95597.16
2019-06-01T18:18:14.044Z,95598.56
2019-06-01T18:23:15.239Z,95597.56
2019-06-01T18:28:19.717Z,95600.20
2019-06-01T18:33:18.054Z,95597.66
2019-06-01T18:38:19.413Z,95600.34
2019-06-01T18:43:21.476Z,95592.23
2019-06-01T18:48:23.530Z,95601.80
2019-06-01T18:53:24.893Z,95594.81
2019-06-01T18:58:26.283Z,95599.00
2019-06-01T19:03:27.601Z,95603.37
2019-06-01T19:08:29.212Z,95608.18
2019-06-01T19:13:30.557Z,95606.77
2019-06-01T19:18:31.975Z,95611.42
2019-06-01T19:23:33.310Z,95614.86
2019-06-01T19:28:34.713Z,95620.08
2019-06-01T19:33:36.169Z,95630.42
2019-06-01T19:38:37.609Z,95628.50
2019-06-01T19:43:38.978Z,95635.16
2019-06-01T19:48:40.321Z,95633.11
2019-06-01T19:53:41.729Z,95635.63
2019-06-01T19:58:43.081Z,95639.66
2019-06-01T20:03:44.414Z,95638.12
2019-06-01T20:08:45.752Z,95640.63
2019-06-01T20:13:47.058Z,95637.75
2019-06-01T20:18:48.400Z,95638.45
2019-06-01T20:23:49.758Z,95637.19
2019-06-01T20:28:51.142Z,95641.22
2019-06-01T20:33:56.073Z,95634.41
2019-06-01T20:38:53.849Z,95635.28
2019-06-01T20:43:55.161Z,95636.63
2019-06-01T20:48:56.585Z,95636.91
2019-06-01T20:53:58.037Z,95638.42
2019-06-01T20:58:59.338Z,95635.94
2019-06-01T21:04:00.651Z,95641.73
2019-06-01T21:09:01.979Z,95634.62
2019-06-01T21:14:03.590Z,95641.86
2019-06-01T21:19:04.920Z,95643.92
2019-06-01T21:24:06.333Z,95638.28
2019-06-01T21:29:07.716Z,95640.11
2019-06-01T21:34:12.102Z,95642.36
2019-06-01T21:39:15.476Z,95638.48
2019-06-01T21:44:22.072Z,95638.14
2019-06-01T21:49:28.132Z,95640.12
2019-06-01T21:54:29.476Z,95636.98
2019-06-01T21:59:30.837Z,95641.46
2019-06-01T22:04:32.285Z,95643.20
2019-06-01T22:09:33.653Z,95644.08
2019-06-01T22:14:35.047Z,95651.45
2019-06-01T22:19:36.380Z,95649.30
2019-06-01T22:24:37.784Z,95642.42
2019-06-01T22:29:39.257Z,95644.13
2019-06-01T22:34:40.627Z,95645.70
2019-06-01T22:39:42.294Z,95644.22
2019-06-01T22:44:43.677Z,95644.25
2019-06-01T22:49:45.028Z,95642.25
2019-06-01T22:54:46.369Z,95647.59
2019-06-01T22:59:47.662Z,95644.89
2019-06-01T23:04:53.471Z,95643.02
2019-06-01T23:09:54.798Z,95648.06
2019-06-01T23:14:56.128Z,95638.92
2019-06-01T23:19:57.441Z,95639.60
2019-06-01T23:24:58.775Z,95633.91
2019-06-01T23:30:00.098Z,95625.07
2019-06-01T23:35:01.438Z,95621.78
2019-06-01T23:40:04.095Z,95618.64
2019-06-01T23:45:06.241Z,95613.58
2019-06-01T23:50:07.572Z,95612.47
2019-06-01T23:55:09.697Z,95609.08
